Meteo Giornale » Osservazioni meteo Italia » Capo Bellavista

ore: 02:55 - Osservazioni Meteo Capo Bellavista
Lat. 39° 56' N Lon. 9° 43' E Alt. 138 metri s.l.m.

sereno Europe/Rome

24 °C

Sereno

Temp. 24 Ore

21 °C

28 °C

Sud-Est

11.1 Km/h

Dew point 20 °C

Umidità 78 %

Visibilità  10 Km

Il sole sorge alle ore 06:22

Il sole tramonta alle ore 20:31

Data e Ora Cielo e Fenomeni T °C DP °C Um. % Pres. hPa Vis. km Vento km/h
Oggi h: 02:55 sereno Sereno 24 20 78 1012 10 SE 11.1
Oggi h: 01:55 sereno Sereno 24 21 83 1012 10 N 3.7
Oggi h: 00:55 sereno Sereno 24 21 83 1012 10 N 3.7
Ieri h: 23:55 sereno Sereno 25 22 83 1012 10 N 3.7
Ieri h: 22:55 sereno Sereno 25 21 78 1012 10 N 3.7
Ieri h: 21:55 poco_nuvoloso Poco Nuvoloso 25 22 83 1012 10 N 3.7
Ieri h: 20:55 poco_nuvoloso Poco Nuvoloso 25 23 88 1011 10 E 20.3
Ieri h: 19:55 sereno Sereno 26 24 88 1010 10 NE 20.3
Ieri h: 17:55 sereno Sereno 27 24 83 1010 10 N 3.7
Ieri h: 16:55 sereno Sereno 28 23 74 1010 10 N 3.7
Ieri h: 15:55 sereno Sereno 28 23 74 1010 10 N 3.7
Ieri h: 14:55 sereno Sereno 28 23 74 1011 10 N 3.7
Ieri h: 13:55 sereno Sereno 28 22 69 1011 10 E 11.1
Ieri h: 12:55 sereno Sereno 27 22 74 1011 10 E 22.2
Ieri h: 11:55 sereno Sereno 27 21 69 1011 10 E 18.5
Ieri h: 10:55 sereno Sereno 28 22 69 1012 10 N 3.7
Ieri h: 09:55 sereno Sereno 28 21 65 1012 10 N 5.5
Ieri h: 08:55 sereno Sereno 23 18 73 1012 10 N 3.7
Ieri h: 07:55 sereno Sereno 23 18 73 1012 10 N 3.7
Ieri h: 06:55 sereno Sereno 22 16 68 1013 10 N 3.7
Ieri h: 05:55 sereno Sereno 21 17 77 1013 10 N 3.7
Ieri h: 04:55 sereno Sereno 21 17 77 1013 10 N 3.7
Ieri h: 03:55 sereno Sereno 22 20 88 1014 10 N 3.7